Keady, United Kingdom
Current Conditions -  °F | °C
As of 7:20 PM on Sunday 21 Dec 2014 (Local Time) from EGAA Reporting Station
Light Rain Light Rain  
Wind Chill: 11°   Ceiling: 600
Heat Index: 11°   Visibility: 4mi
Dew Point: 11°   Wind: 17mph
Humidity: 100%   Direction: 220°SW
Pressure: 29.8"   Gusts: NA
Location:  54.25°N, 6.7°W
Report Text: EGAA 211920Z 22015KT 6000 -RA BKN006 OVC009 11/11 Q1009
Loading
Personal Weather Stations






























Interactive Weather Map New forecast layout! Learn more

10-Day Weather Forecast

Advertisements
Track Severe Weather on mobile